sensor_id;sensor_type;location;lat;lon;timestamp;temperature;humidity
60727;DHT22;46577;49.004;12.120;2022-12-07T00:01:14;4.10;99.90
60727;DHT22;46577;49.004;12.120;2022-12-07T00:03:41;4.20;99.90
60727;DHT22;46577;49.004;12.120;2022-12-07T00:06:09;4.20;99.90
60727;DHT22;46577;49.004;12.120;2022-12-07T00:08:36;4.20;99.90
60727;DHT22;46577;49.004;12.120;2022-12-07T00:11:10;4.30;99.90
60727;DHT22;46577;49.004;12.120;2022-12-07T00:13:37;4.30;99.90
60727;DHT22;46577;49.004;12.120;2022-12-07T00:16:08;4.40;99.90
60727;DHT22;46577;49.004;12.120;2022-12-07T00:18:34;4.20;99.90
60727;DHT22;46577;49.004;12.120;2022-12-07T00:23:38;4.00;99.90
60727;DHT22;46577;49.004;12.120;2022-12-07T00:26:11;4.00;99.90
60727;DHT22;46577;49.004;12.120;2022-12-07T00:28:37;4.00;99.90
60727;DHT22;46577;49.004;12.120;2022-12-07T00:31:14;4.10;99.90
60727;DHT22;46577;49.004;12.120;2022-12-07T00:33:39;4.00;99.90
60727;DHT22;46577;49.004;12.120;2022-12-07T00:36:08;3.90;99.90
60727;DHT22;46577;49.004;12.120;2022-12-07T00:38:35;4.00;99.90
60727;DHT22;46577;49.004;12.120;2022-12-07T00:41:04;4.10;99.90
60727;DHT22;46577;49.004;12.120;2022-12-07T00:43:30;4.20;99.90
60727;DHT22;46577;49.004;12.120;2022-12-07T00:45:56;4.10;99.90
60727;DHT22;46577;49.004;12.120;2022-12-07T00:48:23;4.00;99.90
60727;DHT22;46577;49.004;12.120;2022-12-07T00:50:49;4.00;99.90
60727;DHT22;46577;49.004;12.120;2022-12-07T00:53:15;4.10;99.90
60727;DHT22;46577;49.004;12.120;2022-12-07T00:55:41;4.10;99.90
60727;DHT22;46577;49.004;12.120;2022-12-07T00:58:07;4.20;99.90
60727;DHT22;46577;49.004;12.120;2022-12-07T01:00:35;4.10;99.90
60727;DHT22;46577;49.004;12.120;2022-12-07T01:03:01;4.10;99.90
60727;DHT22;46577;49.004;12.120;2022-12-07T01:05:26;4.10;99.90
60727;DHT22;46577;49.004;12.120;2022-12-07T01:07:52;4.10;99.90
60727;DHT22;46577;49.004;12.120;2022-12-07T01:10:18;4.20;99.90
60727;DHT22;46577;49.004;12.120;2022-12-07T01:12:43;4.10;99.90
60727;DHT22;46577;49.004;12.120;2022-12-07T01:15:09;4.00;99.90
60727;DHT22;46577;49.004;12.120;2022-12-07T01:17:35;3.90;99.90
60727;DHT22;46577;49.004;12.120;2022-12-07T01:20:01;3.90;99.90
60727;DHT22;46577;49.004;12.120;2022-12-07T01:22:27;3.90;99.90
60727;DHT22;46577;49.004;12.120;2022-12-07T01:24:52;4.00;99.90
60727;DHT22;46577;49.004;12.120;2022-12-07T01:27:18;4.00;99.90
60727;DHT22;46577;49.004;12.120;2022-12-07T01:29:44;4.00;99.90
60727;DHT22;46577;49.004;12.120;2022-12-07T01:32:10;4.00;99.90
60727;DHT22;46577;49.004;12.120;2022-12-07T01:34:35;4.00;99.90
60727;DHT22;46577;49.004;12.120;2022-12-07T01:37:01;4.00;99.90
60727;DHT22;46577;49.004;12.120;2022-12-07T01:39:27;4.00;99.90
60727;DHT22;46577;49.004;12.120;2022-12-07T01:41:52;4.00;99.90
60727;DHT22;46577;49.004;12.120;2022-12-07T01:44:27;4.00;99.90
60727;DHT22;46577;49.004;12.120;2022-12-07T01:46:57;3.90;99.90
60727;DHT22;46577;49.004;12.120;2022-12-07T01:52:01;4.00;99.90
60727;DHT22;46577;49.004;12.120;2022-12-07T01:54:28;4.10;99.90
60727;DHT22;46577;49.004;12.120;2022-12-07T01:56:56;4.10;99.90
60727;DHT22;46577;49.004;12.120;2022-12-07T01:59:24;4.10;99.90
60727;DHT22;46577;49.004;12.120;2022-12-07T02:01:52;4.00;99.90
60727;DHT22;46577;49.004;12.120;2022-12-07T02:04:18;4.20;99.90
60727;DHT22;46577;49.004;12.120;2022-12-07T02:06:45;3.90;99.90
60727;DHT22;46577;49.004;12.120;2022-12-07T02:09:11;4.00;99.90
60727;DHT22;46577;49.004;12.120;2022-12-07T02:11:37;4.00;99.90
60727;DHT22;46577;49.004;12.120;2022-12-07T02:14:03;4.00;99.90
60727;DHT22;46577;49.004;12.120;2022-12-07T02:25:31;3.80;99.90
60727;DHT22;46577;49.004;12.120;2022-12-07T02:30:55;3.70;99.90
60727;DHT22;46577;49.004;12.120;2022-12-07T02:33:36;3.70;99.90
60727;DHT22;46577;49.004;12.120;2022-12-07T02:36:06;3.80;99.90
60727;DHT22;46577;49.004;12.120;2022-12-07T02:38:54;3.80;99.90
60727;DHT22;46577;49.004;12.120;2022-12-07T02:41:35;3.70;99.90
60727;DHT22;46577;49.004;12.120;2022-12-07T02:44:08;3.80;99.90
60727;DHT22;46577;49.004;12.120;2022-12-07T02:46:42;3.70;99.90
60727;DHT22;46577;49.004;12.120;2022-12-07T02:49:09;3.70;99.90
60727;DHT22;46577;49.004;12.120;2022-12-07T02:51:40;3.60;99.90
60727;DHT22;46577;49.004;12.120;2022-12-07T02:54:13;3.70;99.90
60727;DHT22;46577;49.004;12.120;2022-12-07T02:56:57;3.80;99.90
60727;DHT22;46577;49.004;12.120;2022-12-07T02:59:54;3.70;99.90
60727;DHT22;46577;49.004;12.120;2022-12-07T03:07:39;3.70;99.90
60727;DHT22;46577;49.004;12.120;2022-12-07T03:13:24;3.60;99.90
60727;DHT22;46577;49.004;12.120;2022-12-07T03:15:56;3.50;99.90
60727;DHT22;46577;49.004;12.120;2022-12-07T03:18:25;3.50;99.90
60727;DHT22;46577;49.004;12.120;2022-12-07T03:20:56;3.50;99.90
60727;DHT22;46577;49.004;12.120;2022-12-07T03:23:25;3.40;99.90
60727;DHT22;46577;49.004;12.120;2022-12-07T03:25:55;3.40;99.90
60727;DHT22;46577;49.004;12.120;2022-12-07T03:28:24;3.50;99.90
60727;DHT22;46577;49.004;12.120;2022-12-07T03:31:05;3.50;99.90
60727;DHT22;46577;49.004;12.120;2022-12-07T03:36:40;3.60;99.90
60727;DHT22;46577;49.004;12.120;2022-12-07T03:39:29;3.50;99.90
60727;DHT22;46577;49.004;12.120;2022-12-07T03:41:58;3.50;99.90
60727;DHT22;46577;49.004;12.120;2022-12-07T03:44:25;3.60;99.90
60727;DHT22;46577;49.004;12.120;2022-12-07T03:49:59;3.70;99.90
60727;DHT22;46577;49.004;12.120;2022-12-07T03:52:33;3.60;99.90
60727;DHT22;46577;49.004;12.120;2022-12-07T03:55:18;3.60;99.90
60727;DHT22;46577;49.004;12.120;2022-12-07T03:57:48;3.60;99.90
60727;DHT22;46577;49.004;12.120;2022-12-07T04:00:15;3.60;99.90
60727;DHT22;46577;49.004;12.120;2022-12-07T04:02:41;3.70;99.90
60727;DHT22;46577;49.004;12.120;2022-12-07T04:05:07;3.70;99.90
60727;DHT22;46577;49.004;12.120;2022-12-07T04:07:33;3.80;99.90
60727;DHT22;46577;49.004;12.120;2022-12-07T04:09:59;3.90;99.90
60727;DHT22;46577;49.004;12.120;2022-12-07T04:12:24;3.90;99.90
60727;DHT22;46577;49.004;12.120;2022-12-07T04:14:50;3.80;99.90
60727;DHT22;46577;49.004;12.120;2022-12-07T04:17:16;3.80;99.90
60727;DHT22;46577;49.004;12.120;2022-12-07T04:19:42;3.60;99.90
60727;DHT22;46577;49.004;12.120;2022-12-07T04:22:08;3.50;99.90
60727;DHT22;46577;49.004;12.120;2022-12-07T04:24:33;3.50;99.90
60727;DHT22;46577;49.004;12.120;2022-12-07T04:26:59;3.50;99.90
60727;DHT22;46577;49.004;12.120;2022-12-07T04:29:25;3.70;99.90
60727;DHT22;46577;49.004;12.120;2022-12-07T04:31:51;3.50;99.90
60727;DHT22;46577;49.004;12.120;2022-12-07T04:34:18;3.50;99.90
60727;DHT22;46577;49.004;12.120;2022-12-07T04:36:45;3.40;99.90
60727;DHT22;46577;49.004;12.120;2022-12-07T04:39:29;3.50;99.90
60727;DHT22;46577;49.004;12.120;2022-12-07T04:41:55;3.50;99.90
60727;DHT22;46577;49.004;12.120;2022-12-07T04:44:22;3.50;99.90
60727;DHT22;46577;49.004;12.120;2022-12-07T04:46:48;3.60;99.90
60727;DHT22;46577;49.004;12.120;2022-12-07T04:49:14;3.50;99.90
60727;DHT22;46577;49.004;12.120;2022-12-07T04:51:41;3.60;99.90
60727;DHT22;46577;49.004;12.120;2022-12-07T04:54:07;3.40;99.90
60727;DHT22;46577;49.004;12.120;2022-12-07T04:56:33;3.40;99.90
60727;DHT22;46577;49.004;12.120;2022-12-07T04:59:01;3.40;99.90
60727;DHT22;46577;49.004;12.120;2022-12-07T05:01:26;3.50;99.90
60727;DHT22;46577;49.004;12.120;2022-12-07T05:03:52;3.50;99.90
60727;DHT22;46577;49.004;12.120;2022-12-07T05:06:18;3.40;99.90
60727;DHT22;46577;49.004;12.120;2022-12-07T05:08:44;3.40;99.90
60727;DHT22;46577;49.004;12.120;2022-12-07T05:11:11;3.40;99.90
60727;DHT22;46577;49.004;12.120;2022-12-07T05:13:55;3.30;99.90
60727;DHT22;46577;49.004;12.120;2022-12-07T05:16:21;3.30;99.90
60727;DHT22;46577;49.004;12.120;2022-12-07T05:18:47;3.20;99.90
60727;DHT22;46577;49.004;12.120;2022-12-07T05:21:12;3.10;99.90
60727;DHT22;46577;49.004;12.120;2022-12-07T05:23:38;2.90;99.90
60727;DHT22;46577;49.004;12.120;2022-12-07T05:26:04;2.80;99.90
60727;DHT22;46577;49.004;12.120;2022-12-07T05:28:29;2.70;99.90
60727;DHT22;46577;49.004;12.120;2022-12-07T05:30:55;2.60;99.90
60727;DHT22;46577;49.004;12.120;2022-12-07T05:33:20;2.50;99.90
60727;DHT22;46577;49.004;12.120;2022-12-07T05:35:46;2.50;99.90
60727;DHT22;46577;49.004;12.120;2022-12-07T05:38:12;2.40;99.90
60727;DHT22;46577;49.004;12.120;2022-12-07T05:40:37;2.40;99.90
60727;DHT22;46577;49.004;12.120;2022-12-07T05:43:03;2.40;99.90
60727;DHT22;46577;49.004;12.120;2022-12-07T05:45:28;2.30;99.90
60727;DHT22;46577;49.004;12.120;2022-12-07T05:47:54;2.30;99.90
60727;DHT22;46577;49.004;12.120;2022-12-07T05:50:20;2.20;99.90
60727;DHT22;46577;49.004;12.120;2022-12-07T05:52:45;2.20;99.90
60727;DHT22;46577;49.004;12.120;2022-12-07T05:55:11;2.10;99.90
60727;DHT22;46577;49.004;12.120;2022-12-07T05:57:36;2.10;99.90
60727;DHT22;46577;49.004;12.120;2022-12-07T06:00:03;2.00;99.90
60727;DHT22;46577;49.004;12.120;2022-12-07T06:02:29;1.90;99.90
60727;DHT22;46577;49.004;12.120;2022-12-07T06:04:54;1.90;99.90
60727;DHT22;46577;49.004;12.120;2022-12-07T06:07:20;1.80;99.90
60727;DHT22;46577;49.004;12.120;2022-12-07T06:09:46;1.80;99.90
60727;DHT22;46577;49.004;12.120;2022-12-07T06:12:12;1.70;99.90
60727;DHT22;46577;49.004;12.120;2022-12-07T06:14:56;3.50;99.90
60727;DHT22;46577;49.004;12.120;2022-12-07T06:17:22;1.60;99.90
60727;DHT22;46577;49.004;12.120;2022-12-07T06:19:48;1.50;99.90
60727;DHT22;46577;49.004;12.120;2022-12-07T06:22:14;1.40;99.90
60727;DHT22;46577;49.004;12.120;2022-12-07T06:24:41;1.50;99.90
60727;DHT22;46577;49.004;12.120;2022-12-07T06:27:07;1.30;99.90
60727;DHT22;46577;49.004;12.120;2022-12-07T06:29:33;1.30;99.90
60727;DHT22;46577;49.004;12.120;2022-12-07T06:31:59;1.40;99.90
60727;DHT22;46577;49.004;12.120;2022-12-07T06:34:26;1.40;99.90
60727;DHT22;46577;49.004;12.120;2022-12-07T06:36:52;1.50;99.90
60727;DHT22;46577;49.004;12.120;2022-12-07T06:39:22;1.50;99.90
60727;DHT22;46577;49.004;12.120;2022-12-07T06:41:49;1.50;99.90
60727;DHT22;46577;49.004;12.120;2022-12-07T06:44:17;1.50;99.90
60727;DHT22;46577;49.004;12.120;2022-12-07T06:46:42;1.50;99.90
60727;DHT22;46577;49.004;12.120;2022-12-07T06:49:08;1.50;99.90
60727;DHT22;46577;49.004;12.120;2022-12-07T06:51:34;1.50;99.90
60727;DHT22;46577;49.004;12.120;2022-12-07T06:54:10;1.50;99.90
60727;DHT22;46577;49.004;12.120;2022-12-07T06:56:36;1.50;99.90
60727;DHT22;46577;49.004;12.120;2022-12-07T06:59:02;1.60;99.90
60727;DHT22;46577;49.004;12.120;2022-12-07T07:01:28;1.60;99.90
60727;DHT22;46577;49.004;12.120;2022-12-07T07:03:54;1.60;99.90
60727;DHT22;46577;49.004;12.120;2022-12-07T07:06:20;1.60;99.90
60727;DHT22;46577;49.004;12.120;2022-12-07T07:08:45;1.70;99.90
60727;DHT22;46577;49.004;12.120;2022-12-07T07:11:11;1.80;99.90
60727;DHT22;46577;49.004;12.120;2022-12-07T07:13:36;1.90;99.90
60727;DHT22;46577;49.004;12.120;2022-12-07T07:16:03;2.00;99.90
60727;DHT22;46577;49.004;12.120;2022-12-07T07:18:28;2.10;99.90
60727;DHT22;46577;49.004;12.120;2022-12-07T07:20:54;2.40;99.90
60727;DHT22;46577;49.004;12.120;2022-12-07T07:23:21;2.30;99.90
60727;DHT22;46577;49.004;12.120;2022-12-07T07:25:47;2.40;99.90
60727;DHT22;46577;49.004;12.120;2022-12-07T07:28:14;2.50;99.90
60727;DHT22;46577;49.004;12.120;2022-12-07T07:30:40;2.60;99.90
60727;DHT22;46577;49.004;12.120;2022-12-07T07:33:06;2.70;99.90
60727;DHT22;46577;49.004;12.120;2022-12-07T07:35:33;2.90;99.90
60727;DHT22;46577;49.004;12.120;2022-12-07T07:37:59;2.90;99.90
60727;DHT22;46577;49.004;12.120;2022-12-07T07:40:25;3.00;99.90
60727;DHT22;46577;49.004;12.120;2022-12-07T07:42:53;3.00;99.90
60727;DHT22;46577;49.004;12.120;2022-12-07T07:45:23;3.10;99.90
60727;DHT22;46577;49.004;12.120;2022-12-07T07:47:50;3.20;99.90
60727;DHT22;46577;49.004;12.120;2022-12-07T07:50:16;3.40;99.90
60727;DHT22;46577;49.004;12.120;2022-12-07T07:52:42;3.40;99.90
60727;DHT22;46577;49.004;12.120;2022-12-07T07:55:08;3.40;99.90
60727;DHT22;46577;49.004;12.120;2022-12-07T07:57:35;3.50;99.90
60727;DHT22;46577;49.004;12.120;2022-12-07T08:00:04;3.70;99.90
60727;DHT22;46577;49.004;12.120;2022-12-07T08:02:30;3.70;99.90
60727;DHT22;46577;49.004;12.120;2022-12-07T08:04:56;3.80;99.90
60727;DHT22;46577;49.004;12.120;2022-12-07T08:07:22;3.80;99.90
60727;DHT22;46577;49.004;12.120;2022-12-07T08:09:47;3.80;99.90
60727;DHT22;46577;49.004;12.120;2022-12-07T08:12:13;4.00;99.90
60727;DHT22;46577;49.004;12.120;2022-12-07T08:14:39;4.20;99.90
60727;DHT22;46577;49.004;12.120;2022-12-07T08:17:04;4.60;99.90
60727;DHT22;46577;49.004;12.120;2022-12-07T08:19:30;4.70;99.90
60727;DHT22;46577;49.004;12.120;2022-12-07T08:21:56;3.70;99.90
60727;DHT22;46577;49.004;12.120;2022-12-07T08:24:22;5.20;99.90
60727;DHT22;46577;49.004;12.120;2022-12-07T08:26:48;5.40;99.90
60727;DHT22;46577;49.004;12.120;2022-12-07T08:29:15;5.50;99.90
60727;DHT22;46577;49.004;12.120;2022-12-07T08:31:40;5.60;99.90
60727;DHT22;46577;49.004;12.120;2022-12-07T08:34:06;5.70;99.90
60727;DHT22;46577;49.004;12.120;2022-12-07T08:36:32;5.70;99.90
60727;DHT22;46577;49.004;12.120;2022-12-07T08:38:57;5.80;99.90
60727;DHT22;46577;49.004;12.120;2022-12-07T08:41:23;5.90;99.90
60727;DHT22;46577;49.004;12.120;2022-12-07T08:43:48;5.90;99.90
60727;DHT22;46577;49.004;12.120;2022-12-07T08:49:24;6.20;99.90
60727;DHT22;46577;49.004;12.120;2022-12-07T08:51:51;6.10;99.90
60727;DHT22;46577;49.004;12.120;2022-12-07T08:54:18;6.00;99.90
60727;DHT22;46577;49.004;12.120;2022-12-07T08:56:45;6.00;99.90
60727;DHT22;46577;49.004;12.120;2022-12-07T08:59:13;5.90;99.90
60727;DHT22;46577;49.004;12.120;2022-12-07T09:01:48;5.70;99.90
60727;DHT22;46577;49.004;12.120;2022-12-07T09:04:14;5.70;99.90
60727;DHT22;46577;49.004;12.120;2022-12-07T09:06:41;5.70;99.90
60727;DHT22;46577;49.004;12.120;2022-12-07T09:09:07;5.70;99.90
60727;DHT22;46577;49.004;12.120;2022-12-07T09:11:33;5.70;99.90
60727;DHT22;46577;49.004;12.120;2022-12-07T09:13:59;5.60;99.90
60727;DHT22;46577;49.004;12.120;2022-12-07T09:16:24;5.50;99.90
60727;DHT22;46577;49.004;12.120;2022-12-07T09:18:50;5.70;99.90
60727;DHT22;46577;49.004;12.120;2022-12-07T09:21:15;5.60;99.90
60727;DHT22;46577;49.004;12.120;2022-12-07T09:23:42;5.50;99.90
60727;DHT22;46577;49.004;12.120;2022-12-07T09:26:08;5.40;99.90
60727;DHT22;46577;49.004;12.120;2022-12-07T09:28:34;5.30;99.90
60727;DHT22;46577;49.004;12.120;2022-12-07T09:30:59;5.20;99.90
60727;DHT22;46577;49.004;12.120;2022-12-07T09:33:25;5.30;99.90
60727;DHT22;46577;49.004;12.120;2022-12-07T09:35:52;5.30;99.90
60727;DHT22;46577;49.004;12.120;2022-12-07T09:38:19;5.20;99.90
60727;DHT22;46577;49.004;12.120;2022-12-07T09:40:45;5.20;99.90
60727;DHT22;46577;49.004;12.120;2022-12-07T09:43:17;5.20;99.90
60727;DHT22;46577;49.004;12.120;2022-12-07T09:45:44;5.00;99.90
60727;DHT22;46577;49.004;12.120;2022-12-07T09:48:19;4.90;99.90
60727;DHT22;46577;49.004;12.120;2022-12-07T09:50:47;5.00;99.90
60727;DHT22;46577;49.004;12.120;2022-12-07T09:53:20;5.10;99.90
60727;DHT22;46577;49.004;12.120;2022-12-07T09:55:48;5.10;99.90
60727;DHT22;46577;49.004;12.120;2022-12-07T09:58:25;5.30;99.90
60727;DHT22;46577;49.004;12.120;2022-12-07T10:00:59;5.30;99.90
60727;DHT22;46577;49.004;12.120;2022-12-07T10:03:27;5.30;99.90
60727;DHT22;46577;49.004;12.120;2022-12-07T10:05:54;5.50;99.90
60727;DHT22;46577;49.004;12.120;2022-12-07T10:08:20;5.50;99.90
60727;DHT22;46577;49.004;12.120;2022-12-07T10:10:50;5.40;99.90
60727;DHT22;46577;49.004;12.120;2022-12-07T10:13:20;5.60;99.90
60727;DHT22;46577;49.004;12.120;2022-12-07T10:15:57;5.40;99.90
60727;DHT22;46577;49.004;12.120;2022-12-07T10:21:05;5.30;99.90
60727;DHT22;46577;49.004;12.120;2022-12-07T10:23:33;5.30;99.90
60727;DHT22;46577;49.004;12.120;2022-12-07T10:26:00;5.30;99.90
60727;DHT22;46577;49.004;12.120;2022-12-07T10:28:44;5.20;99.90
60727;DHT22;46577;49.004;12.120;2022-12-07T10:31:19;5.20;99.90
60727;DHT22;46577;49.004;12.120;2022-12-07T10:33:54;5.20;99.90
60727;DHT22;46577;49.004;12.120;2022-12-07T10:41:29;5.40;99.90
60727;DHT22;46577;49.004;12.120;2022-12-07T10:43:56;5.50;99.90
60727;DHT22;46577;49.004;12.120;2022-12-07T10:46:57;5.60;99.90
60727;DHT22;46577;49.004;12.120;2022-12-07T10:55:29;6.00;99.90
60727;DHT22;46577;49.004;12.120;2022-12-07T10:58:29;5.90;99.90
60727;DHT22;46577;49.004;12.120;2022-12-07T11:06:16;6.20;99.90
60727;DHT22;46577;49.004;12.120;2022-12-07T11:14:43;5.90;99.90
60727;DHT22;46577;49.004;12.120;2022-12-07T11:17:23;5.80;99.90
60727;DHT22;46577;49.004;12.120;2022-12-07T11:31:32;5.80;99.90
60727;DHT22;46577;49.004;12.120;2022-12-07T11:34:16;5.90;99.90
60727;DHT22;46577;49.004;12.120;2022-12-07T11:36:48;6.00;99.90
60727;DHT22;46577;49.004;12.120;2022-12-07T11:39:28;6.00;99.90
60727;DHT22;46577;49.004;12.120;2022-12-07T11:42:14;5.90;99.90
60727;DHT22;46577;49.004;12.120;2022-12-07T11:45:22;6.10;99.90
60727;DHT22;46577;49.004;12.120;2022-12-07T11:50:40;6.30;99.90
60727;DHT22;46577;49.004;12.120;2022-12-07T11:53:30;6.30;99.90
60727;DHT22;46577;49.004;12.120;2022-12-07T12:03:50;5.90;99.90
60727;DHT22;46577;49.004;12.120;2022-12-07T12:06:16;6.00;99.90
60727;DHT22;46577;49.004;12.120;2022-12-07T12:08:46;6.00;99.90
60727;DHT22;46577;49.004;12.120;2022-12-07T12:22:53;6.10;99.90
60727;DHT22;46577;49.004;12.120;2022-12-07T12:25:52;6.00;99.90
60727;DHT22;46577;49.004;12.120;2022-12-07T12:33:32;5.80;99.90
60727;DHT22;46577;49.004;12.120;2022-12-07T12:47:41;6.10;99.90
60727;DHT22;46577;49.004;12.120;2022-12-07T13:00:43;5.40;99.90
60727;DHT22;46577;49.004;12.120;2022-12-07T13:03:24;5.30;99.90
60727;DHT22;46577;49.004;12.120;2022-12-07T13:08:54;5.60;99.90
60727;DHT22;46577;49.004;12.120;2022-12-07T13:14:37;5.90;99.90
60727;DHT22;46577;49.004;12.120;2022-12-07T13:17:11;5.90;99.90
60727;DHT22;46577;49.004;12.120;2022-12-07T13:27:27;5.60;99.90
60727;DHT22;46577;49.004;12.120;2022-12-07T13:29:56;5.70;99.90
60727;DHT22;46577;49.004;12.120;2022-12-07T13:32:27;5.60;99.90
60727;DHT22;46577;49.004;12.120;2022-12-07T13:34:53;5.70;99.90
60727;DHT22;46577;49.004;12.120;2022-12-07T13:37:25;5.60;99.90
60727;DHT22;46577;49.004;12.120;2022-12-07T13:39:57;5.60;99.90
60727;DHT22;46577;49.004;12.120;2022-12-07T13:42:29;5.60;99.90
60727;DHT22;46577;49.004;12.120;2022-12-07T13:44:58;5.60;99.90
60727;DHT22;46577;49.004;12.120;2022-12-07T13:47:44;5.70;99.90
60727;DHT22;46577;49.004;12.120;2022-12-07T13:50:27;5.70;99.90
60727;DHT22;46577;49.004;12.120;2022-12-07T13:53:00;5.60;99.90
60727;DHT22;46577;49.004;12.120;2022-12-07T13:55:28;5.60;99.90
60727;DHT22;46577;49.004;12.120;2022-12-07T13:57:54;5.60;99.90
60727;DHT22;46577;49.004;12.120;2022-12-07T14:00:23;5.60;99.90
60727;DHT22;46577;49.004;12.120;2022-12-07T14:02:58;5.80;99.90
60727;DHT22;46577;49.004;12.120;2022-12-07T14:05:29;5.60;99.90
60727;DHT22;46577;49.004;12.120;2022-12-07T14:08:00;5.60;99.90
60727;DHT22;46577;49.004;12.120;2022-12-07T14:13:02;5.70;99.90
60727;DHT22;46577;49.004;12.120;2022-12-07T14:15:33;5.70;99.90
60727;DHT22;46577;49.004;12.120;2022-12-07T14:18:01;5.60;99.90
60727;DHT22;46577;49.004;12.120;2022-12-07T14:20:36;5.50;99.90
60727;DHT22;46577;49.004;12.120;2022-12-07T14:23:02;5.50;99.90
60727;DHT22;46577;49.004;12.120;2022-12-07T14:25:48;5.60;99.90
60727;DHT22;46577;49.004;12.120;2022-12-07T14:28:32;5.70;99.90
60727;DHT22;46577;49.004;12.120;2022-12-07T14:31:00;5.70;99.90
60727;DHT22;46577;49.004;12.120;2022-12-07T14:33:26;5.50;99.90
60727;DHT22;46577;49.004;12.120;2022-12-07T14:35:52;5.60;99.90
60727;DHT22;46577;49.004;12.120;2022-12-07T14:38:23;5.70;99.90
60727;DHT22;46577;49.004;12.120;2022-12-07T14:40:51;5.80;99.90
60727;DHT22;46577;49.004;12.120;2022-12-07T14:43:17;5.90;99.90
60727;DHT22;46577;49.004;12.120;2022-12-07T14:45:44;6.00;99.90
60727;DHT22;46577;49.004;12.120;2022-12-07T14:48:14;5.90;99.90
60727;DHT22;46577;49.004;12.120;2022-12-07T14:50:43;5.80;99.90
60727;DHT22;46577;49.004;12.120;2022-12-07T14:53:18;5.80;99.90
60727;DHT22;46577;49.004;12.120;2022-12-07T14:55:45;5.70;99.90
60727;DHT22;46577;49.004;12.120;2022-12-07T14:58:15;5.60;99.90
60727;DHT22;46577;49.004;12.120;2022-12-07T15:00:41;5.40;99.90
60727;DHT22;46577;49.004;12.120;2022-12-07T15:03:07;5.30;99.90
60727;DHT22;46577;49.004;12.120;2022-12-07T15:05:33;5.30;99.90
60727;DHT22;46577;49.004;12.120;2022-12-07T15:07:59;5.20;99.90
60727;DHT22;46577;49.004;12.120;2022-12-07T15:10:27;5.10;99.90
60727;DHT22;46577;49.004;12.120;2022-12-07T15:13:00;5.00;99.90
60727;DHT22;46577;49.004;12.120;2022-12-07T15:15:45;5.00;99.90
60727;DHT22;46577;49.004;12.120;2022-12-07T15:18:11;5.10;99.90
60727;DHT22;46577;49.004;12.120;2022-12-07T15:20:37;5.00;99.90
60727;DHT22;46577;49.004;12.120;2022-12-07T15:23:03;4.90;99.90
60727;DHT22;46577;49.004;12.120;2022-12-07T15:25:28;5.10;99.90
60727;DHT22;46577;49.004;12.120;2022-12-07T15:27:54;5.00;99.90
60727;DHT22;46577;49.004;12.120;2022-12-07T15:30:19;5.00;99.90
60727;DHT22;46577;49.004;12.120;2022-12-07T15:32:49;5.00;99.90
60727;DHT22;46577;49.004;12.120;2022-12-07T15:35:15;5.00;99.90
60727;DHT22;46577;49.004;12.120;2022-12-07T15:37:41;5.00;99.90
60727;DHT22;46577;49.004;12.120;2022-12-07T15:40:07;5.00;99.90
60727;DHT22;46577;49.004;12.120;2022-12-07T15:42:33;4.90;99.90
60727;DHT22;46577;49.004;12.120;2022-12-07T15:44:58;4.80;99.90
60727;DHT22;46577;49.004;12.120;2022-12-07T15:47:34;4.80;99.90
60727;DHT22;46577;49.004;12.120;2022-12-07T15:50:06;4.80;99.90
60727;DHT22;46577;49.004;12.120;2022-12-07T15:52:32;4.70;99.90
60727;DHT22;46577;49.004;12.120;2022-12-07T15:54:58;4.70;99.90
60727;DHT22;46577;49.004;12.120;2022-12-07T15:57:26;4.70;99.90
60727;DHT22;46577;49.004;12.120;2022-12-07T15:59:52;4.70;99.90
60727;DHT22;46577;49.004;12.120;2022-12-07T16:02:18;4.60;99.90
60727;DHT22;46577;49.004;12.120;2022-12-07T16:04:44;4.40;99.90
60727;DHT22;46577;49.004;12.120;2022-12-07T16:07:10;4.40;99.90
60727;DHT22;46577;49.004;12.120;2022-12-07T16:09:37;4.40;99.90
60727;DHT22;46577;49.004;12.120;2022-12-07T16:12:03;4.50;99.90
60727;DHT22;46577;49.004;12.120;2022-12-07T16:14:29;4.50;99.90
60727;DHT22;46577;49.004;12.120;2022-12-07T16:16:54;4.50;99.90
60727;DHT22;46577;49.004;12.120;2022-12-07T16:19:21;4.50;99.90
60727;DHT22;46577;49.004;12.120;2022-12-07T16:21:46;4.50;99.90
60727;DHT22;46577;49.004;12.120;2022-12-07T16:24:12;4.30;99.90
60727;DHT22;46577;49.004;12.120;2022-12-07T16:26:40;4.20;99.90
60727;DHT22;46577;49.004;12.120;2022-12-07T16:29:06;4.20;99.90
60727;DHT22;46577;49.004;12.120;2022-12-07T16:31:31;4.20;99.90
60727;DHT22;46577;49.004;12.120;2022-12-07T16:33:58;4.20;99.90
60727;DHT22;46577;49.004;12.120;2022-12-07T16:36:24;4.30;99.90
60727;DHT22;46577;49.004;12.120;2022-12-07T16:38:52;4.20;99.90
60727;DHT22;46577;49.004;12.120;2022-12-07T16:41:18;4.20;99.90
60727;DHT22;46577;49.004;12.120;2022-12-07T16:43:44;4.20;99.90
60727;DHT22;46577;49.004;12.120;2022-12-07T16:46:10;4.20;99.90
60727;DHT22;46577;49.004;12.120;2022-12-07T16:48:37;4.30;99.90
60727;DHT22;46577;49.004;12.120;2022-12-07T16:51:05;4.40;99.90
60727;DHT22;46577;49.004;12.120;2022-12-07T16:53:31;4.40;99.90
60727;DHT22;46577;49.004;12.120;2022-12-07T16:55:56;4.50;99.90
60727;DHT22;46577;49.004;12.120;2022-12-07T16:58:22;4.50;99.90
60727;DHT22;46577;49.004;12.120;2022-12-07T17:00:48;4.40;99.90
60727;DHT22;46577;49.004;12.120;2022-12-07T17:03:14;3.70;99.90
60727;DHT22;46577;49.004;12.120;2022-12-07T17:05:41;4.40;99.90
60727;DHT22;46577;49.004;12.120;2022-12-07T17:08:08;4.30;99.90
60727;DHT22;46577;49.004;12.120;2022-12-07T17:10:36;4.30;99.90
60727;DHT22;46577;49.004;12.120;2022-12-07T17:13:04;4.30;99.90
60727;DHT22;46577;49.004;12.120;2022-12-07T17:16:00;4.40;99.90
60727;DHT22;46577;49.004;12.120;2022-12-07T17:18:28;4.40;99.90
60727;DHT22;46577;49.004;12.120;2022-12-07T17:20:54;4.40;99.90
60727;DHT22;46577;49.004;12.120;2022-12-07T17:23:19;4.40;99.90
60727;DHT22;46577;49.004;12.120;2022-12-07T17:25:45;4.40;99.90
60727;DHT22;46577;49.004;12.120;2022-12-07T17:28:11;4.40;99.90
60727;DHT22;46577;49.004;12.120;2022-12-07T17:30:38;4.40;99.90
60727;DHT22;46577;49.004;12.120;2022-12-07T17:33:03;4.30;99.90
60727;DHT22;46577;49.004;12.120;2022-12-07T17:35:29;4.20;99.90
60727;DHT22;46577;49.004;12.120;2022-12-07T17:37:55;4.20;99.90
60727;DHT22;46577;49.004;12.120;2022-12-07T17:40:21;4.20;99.90
60727;DHT22;46577;49.004;12.120;2022-12-07T17:42:47;4.20;99.90
60727;DHT22;46577;49.004;12.120;2022-12-07T17:45:16;4.10;99.90
60727;DHT22;46577;49.004;12.120;2022-12-07T17:47:42;3.90;99.90
60727;DHT22;46577;49.004;12.120;2022-12-07T17:50:09;4.10;99.90
60727;DHT22;46577;49.004;12.120;2022-12-07T17:52:38;4.20;99.90
60727;DHT22;46577;49.004;12.120;2022-12-07T17:55:22;4.20;99.90
60727;DHT22;46577;49.004;12.120;2022-12-07T17:57:48;4.30;99.90